• Join FlightAware (Why Join?)
  • Login
  • US Flag 
04:18AM EDT


 

Airport Tracker/Info


-or-


 

Live Flight TrackerFlight Track Log ✈ BER6771 ✈ 18-Apr-2013 ✈ EDDN / NUE - EDDL / DUS

Flight Track Log - Related Links

Times and Time Zones

All times are in EDT time to prevent confusion due to time zone crossing. See the BER6771 flight status page for this flight to view local times or setup timezone preferences in your user account.

Time Position Orientation Groundspeed Altitude Reporting Facility
EDT Latitude Longitude Course Direction KTS MPH feet Rate Location/Type
01:17AM 49.8850 10.2060 305° West  Level Estimated
01:18AM 49.9232 10.1181 304° West  Level Estimated
01:19AM 49.9614 10.0300 304° West  Level Estimated
01:20AM 49.9996 9.9417 304° West  Level Estimated
01:21AM 50.0376 9.8533 304° West  Level Estimated
01:22AM 50.0756 9.7648 304° West  Level Estimated
01:23AM 50.1136 9.6761 304° West  Level Estimated
01:24AM 50.1514 9.5873 304° West  Level Estimated
01:25AM 50.1892 9.4984 304° West  Level Estimated
01:26AM 50.2270 9.4093 304° West  Level Estimated
01:27AM 50.2646 9.3200 303° West  Level Estimated
01:28AM 50.3022 9.2307 303° West  Level Estimated
01:29AM 50.3397 9.1411 303° West  Level Estimated
01:30AM 50.3772 9.0515 303° West  Level Estimated
01:31AM 50.4146 8.9617 303° West  Level Estimated
01:32AM 50.4519 8.8717 303° West  Level Estimated
01:33AM 50.4892 8.7817 303° West  Level Estimated
01:34AM 50.5263 8.6914 303° West  Level Estimated
01:35AM 50.5634 8.6011 303° West  Level Estimated
01:36AM 50.6005 8.5105 303° West  Level Estimated
01:37AM 50.6375 8.4199 303° West  Level Estimated
01:38AM 50.6744 8.3291 303° West  Level Estimated
01:39AM 50.7112 8.2382 303° West  Level Estimated
01:40AM 50.7480 8.1471 303° West  Level Estimated
01:41AM 50.7846 8.0559 302° West  Level Estimated
01:42AM 50.8213 7.9645 302° West  Level Estimated
01:43AM 50.8578 7.8730 302° West  Level Estimated
01:44AM 50.8943 7.7813 302° West  Level Estimated
01:45AM 50.9307 7.6895 302° West  Level Estimated
01:46AM 50.9670 7.5976 302° West  Level Estimated
01:47AM 51.0032 7.5055 302° West  Level Estimated
01:48AM 51.0394 7.4133 302° West  Level Estimated
01:49AM 51.0755 7.3209 302° West  Level Estimated
01:50AM 51.1116 7.2284 302° West  Level Estimated
01:51AM 51.1475 7.1357 302° West  Level Estimated
01:52AM 51.1834 7.0429 302° West  Level Estimated
01:53AM 51.2192 6.9500 302° West  Level Estimated
01:54AM 51.2550 6.8569 302° West  Level Estimated
01:55AM 51.2895 6.7668 301° West  Level Estimated
01:56AM 51.2895 6.7668 46° Northeast  Level Estimated
01:57AM 51.2895 6.7668 314° West  Level Estimated
01:58AM 51.2895 6.7668 46° Northeast  Level Estimated
01:59AM 51.2895 6.7668 314° West  Level Estimated
02:00AM 51.2895 6.7668 46° Northeast  Level Estimated
02:01AM 51.2895 6.7668 314° West  Level Estimated
02:02AM 51.2895 6.7668 46° Northeast  Level Estimated
02:03AM 51.2895 6.7668 314° West  Level Estimated
02:04AM 51.2895 6.7668 46° Northeast  Level Estimated
02:05AM 51.2895 6.7668 314° West  Level Estimated
02:06AM 51.2895 6.7668 46° Northeast  Level Estimated
02:07AM 51.2895 6.7668 314° West  Level Estimated
02:08AM 51.2895 6.7668 46° Northeast  Level Estimated
02:09AM 51.2895 6.7668 314° West  Level Estimated
02:10AM 51.2895 6.7668 46° Northeast  Level Estimated
02:11AM 51.2895 6.7668 314° West  Level Estimated